Time;durP1;ratioP1;P1;durP2;ratioP2;P2;SDS_P1;SDS_P2;PMS_P1;PMS_P2;Temp;Humidity;BMP_temperature;BMP_pressure;BME280_temperature;BME280_humidity;BME280_pressure;Samples;Min_cycle;Max_cycle;Signal;HPM_P1;HPM_P2
2022/11/13 00:01:24;;;;;;;5.80;5.20;;;9.60;71.00;;;;;;5023932;28;20123;-50
2022/11/13 00:04:12;;;;;;;6.82;5.25;;;9.70;71.40;;;;;;5031470;28;20072;-48
2022/11/13 00:06:57;;;;;;;6.43;5.25;;;9.70;71.20;;;;;;5015465;28;20209;-50
2022/11/13 00:09:44;;;;;;;6.57;5.35;;;9.70;71.20;;;;;;5023465;28;20056;-50
2022/11/13 00:12:30;;;;;;;6.80;4.68;;;9.70;71.20;;;;;;5031734;28;20049;-50
2022/11/13 00:15:19;;;;;;;6.28;5.22;;;9.70;71.20;;;;;;5016410;28;20049;-50
2022/11/13 00:18:04;;;;;;;5.47;4.85;;;9.70;71.10;;;;;;5020667;28;20526;-50
2022/11/13 00:20:49;;;;;;;6.38;5.47;;;9.80;71.10;;;;;;5011916;28;20057;-49
2022/11/13 00:23:36;;;;;;;7.03;5.55;;;9.70;71.00;;;;;;5006754;28;20635;-50
2022/11/13 00:26:24;;;;;;;8.05;5.32;;;9.70;71.10;;;;;;5023517;28;20649;-50
2022/11/13 00:29:10;;;;;;;6.97;5.30;;;9.70;71.10;;;;;;5021757;28;20051;-48
2022/11/13 00:31:55;;;;;;;5.60;5.00;;;9.70;70.90;;;;;;5031492;28;20049;-50
2022/11/13 00:34:41;;;;;;;6.53;4.78;;;9.70;70.80;;;;;;5016967;28;20633;-50
2022/11/13 00:37:32;;;;;;;7.15;5.20;;;9.70;71.00;;;;;;5028176;28;20056;-50
2022/11/13 00:40:22;;;;;;;5.93;5.18;;;9.70;71.10;;;;;;5011297;28;20449;-50
2022/11/13 00:43:09;;;;;;;6.38;4.80;;;9.70;71.30;;;;;;5010288;28;20053;-50
2022/11/13 00:45:59;;;;;;;6.18;5.00;;;9.70;71.20;;;;;;5016532;28;20410;-50
2022/11/13 00:48:44;;;;;;;6.03;5.25;;;9.70;71.10;;;;;;5031230;28;20539;-50
2022/11/13 00:51:32;;;;;;;7.82;5.32;;;9.70;71.00;;;;;;5015327;28;20049;-48
2022/11/13 00:54:18;;;;;;;6.72;4.85;;;9.70;71.10;;;;;;5011553;28;20605;-49
2022/11/13 00:57:04;;;;;;;4.97;4.45;;;9.70;71.00;;;;;;4992175;28;20057;-49
2022/11/13 00:59:49;;;;;;;5.65;4.68;;;9.70;71.00;;;;;;5009335;28;20056;-50
2022/11/13 01:02:37;;;;;;;6.85;4.97;;;9.70;70.80;;;;;;5012603;28;20407;-50
2022/11/13 01:05:24;;;;;;;6.32;4.75;;;9.70;70.80;;;;;;5016381;28;20049;-50
2022/11/13 01:08:13;;;;;;;5.22;4.43;;;9.70;70.70;;;;;;5031259;28;20048;-50
2022/11/13 01:10:58;;;;;;;4.68;4.28;;;9.60;70.50;;;;;;5019022;28;20055;-50
2022/11/13 01:13:46;;;;;;;4.65;4.22;;;9.60;70.50;;;;;;5019330;28;20077;-50
2022/11/13 01:16:31;;;;;;;4.60;4.20;;;9.60;70.50;;;;;;5028724;28;20571;-49
2022/11/13 01:19:16;;;;;;;5.47;4.80;;;9.60;70.50;;;;;;5016721;28;20047;-51
2022/11/13 01:22:04;;;;;;;8.52;4.80;;;9.60;70.50;;;;;;5014806;28;20049;-49
2022/11/13 01:24:50;;;;;;;4.30;3.83;;;9.60;70.60;;;;;;5015145;28;20107;-48
2022/11/13 01:27:36;;;;;;;5.40;4.53;;;9.50;70.50;;;;;;5013304;28;20057;-50
2022/11/13 01:30:27;;;;;;;3.28;2.65;;;9.50;70.50;;;;;;5010844;28;20520;-45
2022/11/13 01:33:15;;;;;;;5.10;4.40;;;9.50;70.50;;;;;;5012713;28;20229;-49
2022/11/13 01:36:06;;;;;;;5.18;3.95;;;9.50;70.50;;;;;;5024008;28;20537;-50
2022/11/13 01:38:54;;;;;;;4.95;4.45;;;9.50;70.50;;;;;;4997444;28;20043;-50
2022/11/13 01:41:40;;;;;;;10.25;5.32;;;9.40;70.50;;;;;;5024291;28;20533;-48
2022/11/13 01:44:43;;;;;;;5.85;4.60;;;9.40;70.70;;;;;;5027205;28;20060;-50
2022/11/13 01:47:30;;;;;;;6.80;5.15;;;9.40;71.00;;;;;;5015815;28;20052;-48
2022/11/13 01:50:18;;;;;;;7.28;5.20;;;9.40;71.20;;;;;;5014796;28;20411;-49
2022/11/13 01:53:07;;;;;;;5.82;5.05;;;9.40;71.30;;;;;;5003525;28;20049;-50
2022/11/13 01:55:56;;;;;;;5.35;4.85;;;9.40;71.30;;;;;;5012725;28;20052;-50
2022/11/13 01:58:52;;;;;;;4.80;4.32;;;9.50;71.40;;;;;;5016966;28;20523;-50
2022/11/13 02:01:37;;;;;;;5.65;4.53;;;9.50;71.40;;;;;;5018628;28;20096;-48
2022/11/13 02:04:26;;;;;;;4.60;4.13;;;9.50;71.30;;;;;;5030164;28;20139;-50
2022/11/13 02:07:17;;;;;;;5.45;4.57;;;9.50;71.30;;;;;;5016290;28;20052;-50
2022/11/13 02:10:03;;;;;;;7.20;4.50;;;9.50;71.20;;;;;;5018644;28;20108;-50
2022/11/13 02:12:51;;;;;;;5.18;4.57;;;9.50;71.00;;;;;;5010217;28;20045;-47
2022/11/13 02:15:36;;;;;;;7.35;4.95;;;9.50;71.10;;;;;;5005919;28;20057;-47
2022/11/13 02:18:33;;;;;;;6.30;4.53;;;9.40;71.00;;;;;;5013524;28;20125;-50
2022/11/13 02:21:58;;;;;;;4.95;4.50;;;9.50;71.10;;;;;;5014539;28;20057;-50
2022/11/13 02:24:46;;;;;;;7.07;4.38;;;9.50;71.10;;;;;;4979137;28;20065;-50
2022/11/13 02:27:44;;;;;;;7.82;5.45;;;9.50;70.90;;;;;;5027388;28;20049;-48
2022/11/13 02:30:35;;;;;;;5.47;4.82;;;9.50;70.80;;;;;;5031390;28;20421;-49
2022/11/13 02:33:24;;;;;;;4.80;4.32;;;9.40;70.80;;;;;;5030159;28;20147;-50
2022/11/13 02:36:11;;;;;;;6.13;5.20;;;9.40;70.80;;;;;;5013669;28;20125;-50
2022/11/13 02:39:02;;;;;;;4.95;4.30;;;9.40;70.80;;;;;;5015355;28;20096;-49
2022/11/13 02:41:49;;;;;;;6.22;5.20;;;9.40;70.90;;;;;;5033816;28;20064;-48
2022/11/13 02:44:39;;;;;;;4.90;4.50;;;9.40;70.80;;;;;;5017516;28;20070;-50
2022/11/13 02:47:24;;;;;;;5.63;4.15;;;9.40;70.70;;;;;;5024448;28;20537;-49
2022/11/13 02:50:10;;;;;;;5.22;4.72;;;9.40;70.70;;;;;;4994346;28;20146;-50
2022/11/13 02:52:56;;;;;;;6.32;4.70;;;9.40;70.50;;;;;;5002293;28;20100;-50
2022/11/13 02:55:44;;;;;;;5.65;4.53;;;9.40;70.30;;;;;;5015670;28;20065;-50
2022/11/13 02:58:32;;;;;;;5.68;5.03;;;9.30;70.20;;;;;;5025494;28;20099;-49
2022/11/13 03:01:17;;;;;;;6.15;4.82;;;9.30;70.10;;;;;;5033659;28;20656;-49
2022/11/13 03:04:07;;;;;;;5.63;4.85;;;9.30;70.00;;;;;;5010966;28;20048;-49
2022/11/13 03:06:52;;;;;;;7.40;5.55;;;9.20;69.90;;;;;;5014259;28;20510;-50
2022/11/13 03:09:39;;;;;;;8.35;6.50;;;9.20;69.80;;;;;;5012379;28;20052;-50
2022/11/13 03:12:27;;;;;;;8.15;5.93;;;9.20;69.90;;;;;;5016687;28;20196;-48
2022/11/13 03:15:13;;;;;;;9.20;6.93;;;9.10;69.70;;;;;;5025152;28;20119;-50
2022/11/13 03:18:06;;;;;;;8.18;6.22;;;9.10;69.70;;;;;;5019628;28;20052;-50
2022/11/13 03:20:52;;;;;;;;;;;9.10;69.60;;;;;;5017364;28;20402;-50
2022/11/13 03:23:43;;;;;;;6.00;5.32;;;9.10;69.70;;;;;;5011098;28;19948;-47
2022/11/13 03:26:29;;;;;;;8.18;5.85;;;9.00;69.40;;;;;;5023992;28;20048;-50
2022/11/13 03:29:14;;;;;;;10.90;6.22;;;8.90;69.40;;;;;;5033372;28;20114;-50
2022/11/13 03:32:01;;;;;;;6.43;5.75;;;8.90;69.50;;;;;;5019437;28;20430;-49
2022/11/13 03:34:49;;;;;;;6.63;5.70;;;8.90;69.60;;;;;;5023491;28;20059;-49
2022/11/13 03:37:36;;;;;;;8.27;5.30;;;8.80;69.50;;;;;;5029500;28;20047;-50
2022/11/13 03:40:27;;;;;;;5.95;5.32;;;8.80;69.60;;;;;;5021535;28;20604;-49
2022/11/13 03:43:13;;;;;;;5.40;4.90;;;8.70;69.60;;;;;;5019197;28;20056;-50
2022/11/13 03:45:58;;;;;;;6.38;4.07;;;8.70;69.60;;;;;;4993616;28;20060;-50
2022/11/13 03:48:46;;;;;;;5.20;4.20;;;8.70;69.60;;;;;;5005083;28;20071;-50
2022/11/13 03:51:36;;;;;;;4.88;4.43;;;8.60;69.60;;;;;;5008783;28;20100;-50
2022/11/13 03:54:21;;;;;;;5.18;4.68;;;8.60;69.60;;;;;;5012474;28;20040;-50
2022/11/13 03:57:07;;;;;;;5.68;4.90;;;8.60;69.60;;;;;;4993277;28;20170;-49
2022/11/13 03:59:53;;;;;;;4.88;4.45;;;8.50;69.60;;;;;;5005279;28;20048;-50
2022/11/13 04:02:39;;;;;;;4.65;4.25;;;8.50;69.60;;;;;;5023009;28;20088;-50
2022/11/13 04:05:29;;;;;;;6.40;4.70;;;8.50;69.60;;;;;;5032643;28;20056;-50
2022/11/13 04:08:15;;;;;;;4.80;4.38;;;8.50;69.60;;;;;;5025621;28;20057;-50
2022/11/13 04:11:13;;;;;;;6.38;4.50;;;8.40;69.70;;;;;;5021744;28;20099;-50
2022/11/13 04:13:59;;;;;;;5.20;3.72;;;8.40;69.70;;;;;;5018275;28;20056;-50
2022/11/13 04:16:46;;;;;;;5.65;4.38;;;8.40;69.70;;;;;;5026370;28;20529;-48
2022/11/13 04:19:31;;;;;;;4.00;3.70;;;8.30;69.70;;;;;;5026607;28;20048;-48
2022/11/13 04:22:17;;;;;;;5.30;4.03;;;8.30;69.60;;;;;;5020146;28;20466;-50
2022/11/13 04:25:03;;;;;;;5.70;4.72;;;8.30;69.50;;;;;;5018581;28;20171;-49
2022/11/13 04:27:52;;;;;;;4.82;4.38;;;8.30;69.40;;;;;;5016398;28;20168;-48
2022/11/13 04:30:38;;;;;;;5.50;4.55;;;8.30;69.40;;;;;;5023868;28;20107;-50
2022/11/13 04:33:24;;;;;;;5.57;4.45;;;8.20;69.30;;;;;;5027710;28;20045;-50
2022/11/13 04:36:09;;;;;;;5.03;4.57;;;8.20;69.30;;;;;;5017458;28;20049;-50
2022/11/13 04:38:54;;;;;;;5.32;4.35;;;8.20;69.20;;;;;;5019930;28;20049;-50
2022/11/13 04:44:45;;;;;;;10.95;7.57;;;8.10;69.10;;;;;;5010278;28;20378;-49
2022/11/13 04:47:32;;;;;;;10.60;7.43;;;8.10;69.00;;;;;;5011594;28;20414;-49
2022/11/13 04:50:18;;;;;;;9.68;6.50;;;8.00;69.60;;;;;;5015517;28;20176;-50
2022/11/13 04:53:05;;;;;;;7.70;6.80;;;8.00;69.00;;;;;;5003818;28;20659;-50
2022/11/13 04:55:52;;;;;;;8.63;6.35;;;8.00;68.90;;;;;;5010214;28;20048;-50
2022/11/13 04:58:37;;;;;;;9.65;6.60;;;7.90;68.90;;;;;;5023192;28;20040;-50
2022/11/13 05:01:25;;;;;;;6.78;5.75;;;7.90;68.90;;;;;;5031549;28;20052;-50
2022/11/13 05:04:16;;;;;;;8.48;5.68;;;7.80;68.80;;;;;;5019838;28;20583;-50
2022/11/13 05:07:03;;;;;;;6.80;5.82;;;7.80;68.80;;;;;;5017626;28;20128;-51
2022/11/13 05:09:48;;;;;;;8.88;5.82;;;7.80;68.80;;;;;;5022787;28;20096;-47
2022/11/13 05:12:36;;;;;;;6.07;5.30;;;7.80;68.90;;;;;;5030559;28;20211;-49
2022/11/13 05:15:21;;;;;;;6.55;5.55;;;7.70;68.90;;;;;;5016851;28;20117;-50
2022/11/13 05:18:19;;;;;;;6.78;5.40;;;7.70;69.00;;;;;;5019461;28;20061;-50
2022/11/13 05:21:08;;;;;;;5.88;4.50;;;7.70;69.00;;;;;;5011370;28;20056;-50
2022/11/13 05:23:53;;;;;;;6.95;4.38;;;7.70;69.10;;;;;;5011538;28;20055;-50
2022/11/13 05:26:39;;;;;;;5.78;4.70;;;7.60;69.10;;;;;;5024189;28;20196;-50
2022/11/13 05:29:24;;;;;;;5.90;4.95;;;7.60;69.20;;;;;;5027149;28;20071;-49
2022/11/13 05:32:10;;;;;;;4.57;3.88;;;7.60;69.20;;;;;;5025528;28;20130;-49
2022/11/13 05:34:57;;;;;;;6.10;4.43;;;7.60;69.10;;;;;;5018795;28;20106;-47
2022/11/13 05:37:43;;;;;;;4.38;3.97;;;7.60;69.10;;;;;;5020678;28;20108;-49
2022/11/13 05:40:28;;;;;;;5.10;4.47;;;7.60;69.10;;;;;;5010717;28;20461;-50
2022/11/13 05:43:16;;;;;;;5.03;4.47;;;7.50;69.00;;;;;;5010809;28;20199;-45
2022/11/13 05:46:02;;;;;;;4.50;3.72;;;7.50;69.00;;;;;;5019144;28;20044;-51
2022/11/13 05:48:52;;;;;;;5.43;3.90;;;7.50;69.00;;;;;;5030382;28;20075;-50
2022/11/13 05:51:39;;;;;;;5.72;4.50;;;7.50;68.90;;;;;;5019025;28;20057;-47
2022/11/13 05:54:27;;;;;;;4.95;4.03;;;7.50;68.90;;;;;;5008177;28;20048;-49
2022/11/13 05:57:12;;;;;;;5.03;4.13;;;7.40;68.80;;;;;;5020063;28;20056;-47
2022/11/13 06:00:00;;;;;;;4.45;4.05;;;7.40;68.80;;;;;;5031061;28;20533;-50
2022/11/13 06:02:47;;;;;;;5.47;4.10;;;7.40;68.80;;;;;;5013516;28;20061;-49
2022/11/13 06:05:36;;;;;;;4.40;4.00;;;7.40;68.80;;;;;;5024460;28;20165;-50
2022/11/13 06:08:21;;;;;;;5.15;4.40;;;7.40;68.70;;;;;;5034387;28;20055;-46
2022/11/13 06:11:09;;;;;;;5.18;3.95;;;7.30;68.80;;;;;;5022341;28;20057;-50
2022/11/13 06:13:56;;;;;;;4.65;4.03;;;7.30;68.80;;;;;;5017416;28;20524;-50
2022/11/13 06:16:41;;;;;;;4.22;3.83;;;7.30;68.90;;;;;;5032715;28;20057;-51
2022/11/13 06:19:29;;;;;;;4.32;3.92;;;7.30;69.00;;;;;;5023290;28;20041;-50
2022/11/13 06:22:15;;;;;;;4.88;4.28;;;7.30;69.00;;;;;;5014599;28;20060;-50
2022/11/13 06:25:00;;;;;;;4.95;4.28;;;7.30;69.00;;;;;;5023805;28;20048;-50
2022/11/13 06:27:46;;;;;;;6.45;4.57;;;7.20;69.00;;;;;;5022059;28;20056;-50
2022/11/13 06:30:31;;;;;;;6.45;4.57;;;7.20;69.00;;;;;;5029885;28;20132;-49
2022/11/13 06:33:16;;;;;;;6.32;4.63;;;7.20;69.10;;;;;;5018520;28;20592;-50
2022/11/13 06:36:04;;;;;;;5.75;4.70;;;7.20;69.20;;;;;;5028978;28;20539;-50
2022/11/13 06:38:51;;;;;;;5.85;4.78;;;7.20;69.30;;;;;;5010447;28;20531;-48
2022/11/13 06:41:38;;;;;;;5.97;5.32;;;7.20;69.20;;;;;;5027102;28;20048;-50
2022/11/13 06:44:26;;;;;;;5.15;4.60;;;7.20;69.20;;;;;;5030259;28;20052;-48
2022/11/13 06:47:13;;;;;;;7.30;6.20;;;7.20;69.20;;;;;;5024051;28;20171;-47
2022/11/13 06:49:58;;;;;;;7.32;5.63;;;7.20;69.30;;;;;;5014107;28;20409;-48
2022/11/13 06:52:44;;;;;;;9.10;6.15;;;7.20;69.40;;;;;;5016891;28;20053;-49
2022/11/13 06:55:30;;;;;;;9.50;6.13;;;7.20;69.50;;;;;;5017317;28;20048;-49
2022/11/13 06:58:17;;;;;;;9.38;6.20;;;7.20;69.50;;;;;;5023326;28;20048;-47
2022/11/13 07:01:18;;;;;;;7.15;6.20;;;7.20;69.60;;;;;;5008533;28;20049;-47
2022/11/13 07:04:18;;;;;;;8.05;5.70;;;7.20;69.80;;;;;;5020035;28;20080;-46
2022/11/13 07:07:05;;;;;;;8.27;5.75;;;7.20;69.60;;;;;;5020997;28;20057;-47
2022/11/13 07:09:53;;;;;;;8.30;5.82;;;7.20;69.60;;;;;;5021049;28;20528;-50
2022/11/13 07:12:40;;;;;;;8.38;6.40;;;7.20;69.60;;;;;;5023179;28;20050;-49
2022/11/13 07:15:28;;;;;;;7.82;6.03;;;7.20;69.60;;;;;;5006127;28;20049;-50
2022/11/13 07:18:13;;;;;;;7.50;5.80;;;7.30;69.60;;;;;;5018763;28;20524;-47
2022/11/13 07:21:04;;;;;;;9.57;6.82;;;7.30;69.70;;;;;;5026199;28;20079;-50
2022/11/13 07:23:50;;;;;;;10.02;7.55;;;7.30;69.70;;;;;;5021126;28;20048;-48
2022/11/13 07:26:42;;;;;;;10.93;7.57;;;7.30;69.70;;;;;;5021435;28;20517;-49
2022/11/13 07:29:29;;;;;;;10.75;6.95;;;7.30;69.90;;;;;;5033748;28;20076;-50
2022/11/13 07:32:15;;;;;;;9.48;7.28;;;7.30;69.80;;;;;;5012829;28;20052;-50
2022/11/13 07:35:00;;;;;;;9.35;7.10;;;7.30;69.90;;;;;;5011970;28;20116;-48
2022/11/13 07:37:46;;;;;;;10.85;6.88;;;7.30;69.90;;;;;;5024146;28;20139;-47
2022/11/13 07:40:33;;;;;;;7.03;6.03;;;7.40;70.00;;;;;;5024155;28;20076;-50
2022/11/13 07:43:22;;;;;;;6.15;5.25;;;7.40;70.00;;;;;;5012258;28;20056;-48
2022/11/13 07:46:09;;;;;;;7.40;6.20;;;7.40;70.00;;;;;;5020044;28;20049;-47
2022/11/13 07:48:55;;;;;;;7.00;5.35;;;7.40;70.00;;;;;;5021893;28;20049;-46
2022/11/13 07:51:45;;;;;;;6.55;5.82;;;7.40;70.00;;;;;;5018137;28;20061;-48
2022/11/13 07:54:33;;;;;;;9.13;6.35;;;7.40;70.00;;;;;;5005116;28;20538;-48
2022/11/13 07:57:26;;;;;;;7.22;6.57;;;7.50;70.10;;;;;;5021551;28;20045;-46
2022/11/13 08:00:11;;;;;;;;;;;7.50;70.10;;;;;;4994397;28;20133;-47
2022/11/13 08:02:56;;;;;;;10.07;7.15;;;7.60;70.40;;;;;;5012390;28;19967;-51
2022/11/13 08:05:44;;;;;;;9.40;7.65;;;7.60;70.00;;;;;;5023518;28;20797;-50
2022/11/13 08:08:33;;;;;;;9.60;8.35;;;7.60;70.40;;;;;;5033156;28;20265;-50
2022/11/13 08:11:23;;;;;;;10.73;9.25;;;7.60;70.50;;;;;;5019333;28;20048;-50
2022/11/13 08:14:09;;;;;;;11.85;9.15;;;7.60;70.90;;;;;;5016631;28;20127;-51
2022/11/13 08:16:54;;;;;;;12.98;9.57;;;7.70;71.10;;;;;;5013329;28;20044;-50
2022/11/13 08:19:41;;;;;;;11.38;9.23;;;7.70;71.30;;;;;;5012135;28;20069;-49
2022/11/13 08:22:26;;;;;;;9.90;8.75;;;7.70;71.40;;;;;;5012253;28;20061;-49
2022/11/13 08:25:14;;;;;;;9.02;7.45;;;7.80;71.50;;;;;;5022971;28;20045;-49
2022/11/13 08:28:02;;;;;;;8.93;7.03;;;7.90;71.50;;;;;;5022475;28;20052;-50
2022/11/13 08:30:51;;;;;;;8.52;7.05;;;7.90;71.40;;;;;;5028779;28;20056;-50
2022/11/13 08:33:37;;;;;;;8.40;6.97;;;8.00;71.60;;;;;;5015664;28;20108;-46
2022/11/13 08:36:23;;;;;;;8.32;7.30;;;8.00;71.80;;;;;;5024241;28;20402;-50
2022/11/13 08:39:14;;;;;;;7.88;6.95;;;8.10;72.10;;;;;;5020191;28;20053;-51
2022/11/13 08:41:59;;;;;;;9.05;7.00;;;8.20;72.30;;;;;;5014225;28;20125;-50
2022/11/13 08:44:46;;;;;;;6.97;6.28;;;8.20;72.40;;;;;;5031324;28;20056;-50
2022/11/13 08:47:31;;;;;;;7.15;6.43;;;8.30;72.30;;;;;;5026999;28;20754;-49
2022/11/13 08:50:17;;;;;;;7.88;6.00;;;8.40;72.40;;;;;;5013087;28;20569;-48
2022/11/13 08:53:05;;;;;;;7.53;5.18;;;8.50;72.50;;;;;;5005594;28;20052;-50
2022/11/13 08:55:53;;;;;;;8.23;4.93;;;8.50;72.60;;;;;;5004325;28;20125;-46
2022/11/13 08:58:39;;;;;;;4.90;4.22;;;8.60;72.80;;;;;;5010159;28;20438;-49
2022/11/13 09:01:27;;;;;;;5.05;3.95;;;8.70;72.80;;;;;;5021369;28;20048;-48
2022/11/13 09:04:22;;;;;;;4.40;4.00;;;8.80;72.90;;;;;;5022785;28;20056;-50
2022/11/13 09:07:10;;;;;;;6.85;4.03;;;9.00;73.00;;;;;;5023598;28;20513;-50
2022/11/13 09:09:57;;;;;;;6.22;3.45;;;9.00;72.80;;;;;;5012993;28;20059;-50
2022/11/13 09:12:46;;;;;;;6.32;3.97;;;9.20;72.80;;;;;;5021500;28;20061;-48
2022/11/13 09:15:31;;;;;;;3.72;3.42;;;9.30;72.50;;;;;;5031937;28;20139;-47
2022/11/13 09:18:16;;;;;;;3.15;2.75;;;9.50;72.40;;;;;;5012139;28;20045;-50
2022/11/13 09:21:10;;;;;;;4.03;3.55;;;9.60;72.10;;;;;;5019823;28;20407;-51
2022/11/13 09:23:56;;;;;;;3.25;2.72;;;9.80;71.80;;;;;;5009250;28;20112;-49
2022/11/13 09:26:41;;;;;;;3.50;3.20;;;9.90;71.30;;;;;;5012679;28;20064;-49
2022/11/13 09:29:27;;;;;;;3.63;2.95;;;10.00;71.00;;;;;;5018706;28;20077;-50
2022/11/13 09:32:12;;;;;;;4.00;3.08;;;10.20;70.70;;;;;;5023117;28;20103;-45
2022/11/13 09:34:58;;;;;;;3.47;2.72;;;10.30;70.40;;;;;;5031051;28;20120;-50
2022/11/13 09:37:43;;;;;;;3.78;3.05;;;10.40;70.10;;;;;;5016974;28;20061;-50
2022/11/13 09:40:36;;;;;;;2.80;2.53;;;10.50;69.90;;;;;;5022866;28;20044;-48
2022/11/13 09:43:44;;;;;;;3.13;2.83;;;10.60;69.30;;;;;;5029810;28;20540;-46
2022/11/13 09:46:38;;;;;;;3.55;2.97;;;10.70;68.70;;;;;;5008037;28;20622;-47
2022/11/13 09:49:35;;;;;;;5.85;3.70;;;10.80;68.80;;;;;;5016588;28;20064;-47
2022/11/13 09:52:29;;;;;;;4.70;3.72;;;10.90;68.60;;;;;;5007025;28;20132;-50
2022/11/13 09:55:20;;;;;;;6.38;4.50;;;11.00;68.50;;;;;;5007633;28;20131;-49
2022/11/13 09:58:30;;;;;;;5.72;4.10;;;11.10;68.20;;;;;;5013312;28;20092;-50
2022/11/13 10:01:43;;;;;;;4.55;3.47;;;11.30;67.70;;;;;;4978346;28;20154;-50
2022/11/13 10:05:11;;;;;;;4.15;3.20;;;11.30;67.40;;;;;;5010701;28;20749;-49
2022/11/13 10:08:09;;;;;;;4.13;3.72;;;11.40;67.60;;;;;;5023121;28;20052;-49
2022/11/13 10:11:12;;;;;;;5.43;3.38;;;11.50;67.20;;;;;;5015537;28;20053;-48
2022/11/13 10:14:02;;;;;;;6.18;3.63;;;11.60;67.30;;;;;;5014142;28;20587;-51
2022/11/13 10:17:11;;;;;;;3.50;2.80;;;11.60;67.60;;;;;;5022631;28;20532;-46
2022/11/13 10:20:06;;;;;;;3.70;3.40;;;11.70;67.40;;;;;;5031305;28;20421;-51
2022/11/13 10:23:13;;;;;;;4.03;3.15;;;11.80;67.20;;;;;;5006759;28;20072;-47
2022/11/13 10:26:12;;;;;;;4.05;3.05;;;11.80;66.80;;;;;;5020572;28;20117;-50
2022/11/13 10:29:13;;;;;;;2.92;2.45;;;11.90;66.70;;;;;;5018573;28;20125;-47
2022/11/13 10:32:25;;;;;;;3.13;1.98;;;12.00;66.10;;;;;;5011033;28;20060;-49
2022/11/13 10:35:40;;;;;;;2.90;2.00;;;12.10;65.60;;;;;;5014792;28;20553;-50
2022/11/13 10:38:34;;;;;;;2.00;1.60;;;12.20;65.50;;;;;;4991773;28;20144;-48
2022/11/13 10:41:20;;;;;;;;;;;12.30;66.20;;;;;;4993813;28;20120;-51
2022/11/13 10:44:35;;;;;;;2.28;1.70;;;12.40;66.50;;;;;;5017117;28;19931;-48
2022/11/13 10:47:28;;;;;;;2.45;2.00;;;12.50;65.70;;;;;;5016730;28;20184;-47
2022/11/13 10:50:34;;;;;;;2.00;1.58;;;12.60;66.00;;;;;;5014151;28;20584;-46
2022/11/13 10:53:27;;;;;;;2.08;1.60;;;12.70;65.70;;;;;;5017631;28;20053;-47
2022/11/13 10:56:33;;;;;;;3.17;1.73;;;12.70;65.30;;;;;;5015139;28;20117;-47
2022/11/13 10:59:19;;;;;;;2.10;1.70;;;12.80;64.60;;;;;;5020125;28;20045;-48
2022/11/13 11:02:16;;;;;;;1.92;1.63;;;12.90;65.10;;;;;;5012244;28;20119;-47
2022/11/13 11:05:17;;;;;;;2.88;1.65;;;13.00;64.40;;;;;;5027137;28;20103;-49
2022/11/13 11:08:07;;;;;;;3.10;1.88;;;13.10;63.80;;;;;;5034096;28;20064;-47
2022/11/13 11:14:38;;;;;;;2.53;1.67;;;13.30;63.50;;;;;;5015178;28;20113;-50
2022/11/13 11:17:37;;;;;;;1.73;1.10;;;13.40;62.70;;;;;;5012929;28;20060;-46
2022/11/13 11:20:38;;;;;;;2.03;1.38;;;13.50;63.00;;;;;;5006600;28;20569;-46
2022/11/13 11:23:46;;;;;;;1.77;1.40;;;13.60;61.90;;;;;;5011295;28;20061;-48
2022/11/13 11:26:50;;;;;;;2.33;1.52;;;13.70;61.60;;;;;;5023357;28;20048;-49
2022/11/13 11:29:47;;;;;;;2.47;1.80;;;13.80;61.70;;;;;;5033658;28;20107;-51
2022/11/13 11:32:42;;;;;;;2.92;2.17;;;13.80;61.60;;;;;;5019152;28;20049;-51
2022/11/13 11:35:51;;;;;;;1.95;1.70;;;13.90;61.30;;;;;;5025150;28;20180;-45
2022/11/13 11:38:38;;;;;;;3.85;1.73;;;14.00;60.30;;;;;;5028332;28;20046;-50
2022/11/13 11:41:31;;;;;;;2.28;1.52;;;14.10;61.60;;;;;;5025179;28;20044;-45
2022/11/13 11:44:48;;;;;;;1.75;1.33;;;14.10;60.40;;;;;;5023283;28;20057;-46
2022/11/13 11:47:36;;;;;;;3.58;1.30;;;14.20;59.70;;;;;;5023379;28;20528;-48
2022/11/13 11:50:45;;;;;;;2.45;1.80;;;14.30;60.10;;;;;;5019987;28;20203;-47
2022/11/13 11:53:33;;;;;;;3.20;1.33;;;14.30;59.30;;;;;;5023791;28;20135;-46
2022/11/13 11:56:53;;;;;;;1.55;1.42;;;14.30;59.60;;;;;;5013583;28;20052;-48
2022/11/13 11:59:56;;;;;;;2.17;1.55;;;14.40;58.90;;;;;;5020218;28;20093;-46
2022/11/13 12:03:08;;;;;;;1.73;1.60;;;14.40;58.40;;;;;;5024469;28;20103;-47
2022/11/13 12:06:11;;;;;;;1.92;1.30;;;14.50;58.10;;;;;;5027454;28;20057;-50
2022/11/13 12:09:18;;;;;;;1.27;1.17;;;14.50;58.60;;;;;;5018271;28;20048;-47
2022/11/13 12:12:45;;;;;;;1.65;1.33;;;14.60;57.90;;;;;;5019278;28;20176;-46
2022/11/13 12:16:03;;;;;;;2.67;2.22;;;14.60;58.00;;;;;;5021001;28;20045;-48
2022/11/13 12:19:03;;;;;;;5.13;2.67;;;14.70;57.60;;;;;;5018876;28;20064;-48
2022/11/13 12:22:02;;;;;;;3.25;1.75;;;14.70;58.00;;;;;;5023971;28;20076;-51
2022/11/13 12:25:13;;;;;;;1.60;1.40;;;14.70;58.10;;;;;;5018391;28;20064;-47
2022/11/13 12:28:20;;;;;;;2.88;1.98;;;14.80;57.80;;;;;;5023243;28;20425;-46
2022/11/13 12:31:24;;;;;;;1.63;1.53;;;14.80;57.30;;;;;;5023366;28;20545;-50
2022/11/13 12:34:33;;;;;;;1.67;1.42;;;14.90;58.40;;;;;;5014340;28;20124;-47
2022/11/13 12:37:29;;;;;;;3.55;2.33;;;15.00;57.00;;;;;;5016496;28;20049;-51
2022/11/13 12:40:21;;;;;;;3.35;2.13;;;15.00;57.40;;;;;;5015692;28;20049;-49
2022/11/13 12:43:29;;;;;;;2.17;1.77;;;15.00;57.40;;;;;;5010252;28;20045;-51
2022/11/13 12:46:15;;;;;;;2.60;1.60;;;15.10;58.20;;;;;;5022395;28;20148;-51
2022/11/13 12:49:34;;;;;;;1.98;1.35;;;15.10;57.60;;;;;;5018589;28;20049;-48
2022/11/13 12:52:23;;;;;;;2.15;1.45;;;15.10;57.70;;;;;;4991991;28;20073;-48
2022/11/13 12:55:28;;;;;;;4.10;1.63;;;15.10;57.70;;;;;;5004653;28;20045;-51
2022/11/13 12:58:18;;;;;;;1.58;1.45;;;15.20;56.40;;;;;;5014983;28;20052;-49
2022/11/13 13:01:16;;;;;;;2.45;1.67;;;15.20;57.10;;;;;;5012343;28;20053;-50
2022/11/13 13:04:27;;;;;;;3.60;2.35;;;15.20;56.50;;;;;;5014404;28;20425;-45
2022/11/13 13:07:50;;;;;;;2.40;1.83;;;15.30;56.80;;;;;;5015237;28;20057;-48
2022/11/13 13:10:53;;;;;;;3.50;2.45;;;15.30;56.50;;;;;;5007289;28;20056;-47
2022/11/13 13:13:47;;;;;;;4.45;1.80;;;15.30;56.80;;;;;;5014003;28;20057;-50
2022/11/13 13:16:43;;;;;;;2.05;1.70;;;15.40;57.60;;;;;;5018131;28;20044;-51
2022/11/13 13:19:30;;;;;;;2.17;1.38;;;15.40;57.40;;;;;;5031941;28;20056;-51
2022/11/13 13:22:32;;;;;;;1.50;1.40;;;15.40;56.90;;;;;;5007859;28;21007;-47
2022/11/13 13:25:32;;;;;;;1.95;1.60;;;15.50;56.30;;;;;;5022757;28;20413;-49
2022/11/13 13:28:25;;;;;;;1.65;1.30;;;15.50;56.20;;;;;;5024812;28;20536;-47
2022/11/13 13:31:11;;;;;;;2.53;1.50;;;15.50;56.60;;;;;;5024252;28;20097;-51
2022/11/13 13:34:06;;;;;;;2.13;1.05;;;15.50;56.40;;;;;;5016359;28;20427;-49
2022/11/13 13:37:12;;;;;;;1.95;1.30;;;15.60;56.40;;;;;;5023103;28;20778;-51
2022/11/13 13:40:11;;;;;;;1.73;1.55;;;15.60;55.90;;;;;;5024237;28;20164;-51
2022/11/13 13:43:24;;;;;;;3.10;1.52;;;15.60;55.90;;;;;;5011185;28;20041;-46
2022/11/13 13:46:16;;;;;;;2.45;2.03;;;15.60;54.80;;;;;;4992242;28;20097;-49
2022/11/13 13:49:13;;;;;;;3.30;2.25;;;15.60;55.60;;;;;;4998855;28;20057;-48
2022/11/13 13:51:58;;;;;;;6.63;2.85;;;15.70;55.60;;;;;;5014572;28;20144;-51
2022/11/13 13:54:44;;;;;;;5.53;3.55;;;15.70;55.70;;;;;;5010936;28;20048;-46
2022/11/13 13:57:39;;;;;;;4.28;2.67;;;15.70;55.40;;;;;;5011465;28;20061;-46
2022/11/13 14:00:27;;;;;;;2.65;2.30;;;15.70;55.20;;;;;;5016453;28;20442;-47
2022/11/13 14:03:19;;;;;;;2.50;2.30;;;15.70;55.20;;;;;;5014093;28;20160;-48
2022/11/13 14:06:17;;;;;;;1.92;1.42;;;15.70;55.00;;;;;;5010570;28;20140;-51
2022/11/13 14:09:11;;;;;;;2.45;2.03;;;15.80;54.60;;;;;;5012655;28;20056;-46
2022/11/13 14:12:03;;;;;;;3.00;2.00;;;15.70;54.40;;;;;;5019231;28;20185;-51
2022/11/13 14:14:54;;;;;;;1.80;1.60;;;15.80;54.70;;;;;;4991778;28;20423;-48
2022/11/13 14:17:39;;;;;;;1.52;1.15;;;15.70;55.00;;;;;;5002817;28;20522;-47
2022/11/13 14:20:26;;;;;;;2.65;1.25;;;15.80;54.80;;;;;;5020865;28;20057;-48
2022/11/13 14:23:30;;;;;;;1.75;1.58;;;15.70;54.70;;;;;;5007221;28;20060;-47
2022/11/13 14:26:17;;;;;;;1.40;1.30;;;15.70;53.90;;;;;;5022025;28;20052;-46
2022/11/13 14:29:02;;;;;;;2.53;2.03;;;15.70;54.50;;;;;;5022182;28;20056;-51
2022/11/13 14:31:50;;;;;;;2.42;1.40;;;15.70;54.40;;;;;;5025564;28;20056;-51
2022/11/13 14:34:36;;;;;;;2.15;1.55;;;15.60;54.50;;;;;;5033995;28;20142;-51
2022/11/13 14:37:25;;;;;;;1.77;1.50;;;15.60;54.40;;;;;;5019550;28;20509;-50
2022/11/13 14:40:21;;;;;;;5.45;3.97;;;15.60;54.00;;;;;;5022276;28;20048;-48
2022/11/13 14:43:18;;;;;;;6.35;4.18;;;15.60;53.80;;;;;;4994762;28;20132;-47
2022/11/13 14:46:21;;;;;;;9.55;4.38;;;15.50;54.10;;;;;;5012408;28;20580;-51
2022/11/13 14:49:34;;;;;;;4.47;3.60;;;15.40;54.40;;;;;;5016570;28;20523;-51
2022/11/13 14:52:29;;;;;;;6.85;2.75;;;15.40;54.10;;;;;;5018086;28;20104;-52
2022/11/13 14:55:28;;;;;;;3.88;3.13;;;15.30;54.70;;;;;;5013539;28;20088;-47
2022/11/13 14:58:13;;;;;;;3.83;2.88;;;15.20;53.90;;;;;;5025318;28;20069;-51
2022/11/13 15:01:24;;;;;;;4.10;2.40;;;15.10;55.50;;;;;;5020265;28;20123;-49
2022/11/13 15:04:11;;;;;;;3.20;1.92;;;15.00;54.80;;;;;;5024962;28;20052;-51
2022/11/13 15:07:00;;;;;;;3.75;2.40;;;14.90;55.50;;;;;;5017115;28;20050;-47